Time;durP1;ratioP1;P1;durP2;ratioP2;P2;SDS_P1;SDS_P2;PMS_P1;PMS_P2;Temp;Humidity;BMP_temperature;BMP_pressure;BME280_temperature;BME280_humidity;BME280_pressure;Samples;Min_cycle;Max_cycle;Signal;HPM_P1;HPM_P2
2023/08/09 00:02:24;;;;;;;2.77;2.30;;;22.70;69.10;;;;;;5061010;28;20202;-71
2023/08/09 00:04:51;;;;;;;2.17;1.97;;;22.70;69.20;;;;;;5051636;28;20646;-71
2023/08/09 00:07:17;;;;;;;1.80;1.70;;;22.60;69.10;;;;;;5051837;28;20695;-71
2023/08/09 00:09:44;;;;;;;2.40;2.17;;;22.60;69.00;;;;;;5051577;28;20212;-71
2023/08/09 00:12:11;;;;;;;2.13;1.93;;;22.60;69.20;;;;;;5059085;28;20221;-70
2023/08/09 00:14:39;;;;;;;2.33;2.00;;;22.50;69.10;;;;;;5071522;28;20303;-71
2023/08/09 00:17:06;;;;;;;2.70;2.00;;;22.50;69.30;;;;;;5071413;28;20708;-71
2023/08/09 00:19:33;;;;;;;2.90;2.10;;;22.50;69.20;;;;;;5071795;28;20213;-70
2023/08/09 00:22:00;;;;;;;3.13;2.03;;;22.60;69.10;;;;;;5064375;28;20715;-70
2023/08/09 00:24:27;;;;;;;4.90;2.33;;;22.50;69.10;;;;;;5051311;28;20234;-70
2023/08/09 00:26:54;;;;;;;2.23;2.00;;;22.50;69.30;;;;;;5052809;28;20220;-71
2023/08/09 00:29:21;;;;;;;2.20;2.00;;;22.50;69.20;;;;;;5051348;28;20255;-70
2023/08/09 00:31:49;;;;;;;2.90;2.07;;;22.40;69.20;;;;;;5051104;28;20229;-71
2023/08/09 00:34:16;;;;;;;2.00;1.80;;;22.40;69.50;;;;;;5051166;28;20267;-71
2023/08/09 00:36:43;;;;;;;3.20;1.97;;;22.40;69.60;;;;;;5063226;28;20308;-70
2023/08/09 00:39:10;;;;;;;2.30;2.10;;;22.40;69.70;;;;;;5071174;28;20240;-70
2023/08/09 00:41:37;;;;;;;2.10;1.90;;;22.40;69.80;;;;;;5070946;28;20209;-70
2023/08/09 00:44:04;;;;;;;2.10;1.90;;;22.40;69.50;;;;;;5053982;28;20230;-70
2023/08/09 00:46:31;;;;;;;3.23;2.20;;;22.40;69.60;;;;;;5064834;28;20235;-71
2023/08/09 00:48:59;;;;;;;2.33;2.03;;;22.40;70.00;;;;;;5075274;28;20583;-70
2023/08/09 00:51:27;;;;;;;1.77;1.63;;;22.30;69.80;;;;;;5074513;28;20637;-71
2023/08/09 00:53:54;;;;;;;1.87;1.67;;;22.30;70.00;;;;;;5074862;28;20209;-70
2023/08/09 00:56:21;;;;;;;3.37;1.90;;;22.30;70.00;;;;;;5066590;28;20217;-70
2023/08/09 00:58:48;;;;;;;2.97;2.23;;;22.30;70.00;;;;;;5054870;28;20685;-71
2023/08/09 01:01:14;;;;;;;2.00;1.80;;;22.40;70.10;;;;;;5054267;28;20237;-70
2023/08/09 01:03:41;;;;;;;2.17;1.93;;;22.30;70.00;;;;;;5054967;28;20190;-70
2023/08/09 01:06:20;;;;;;;4.43;2.00;;;22.30;70.00;;;;;;5060340;28;20719;-71
2023/08/09 01:08:50;;;;;;;8.87;2.57;;;22.30;70.00;;;;;;5070451;28;20202;-70
2023/08/09 01:11:25;;;;;;;2.73;1.80;;;22.30;70.10;;;;;;5054362;28;20212;-71
2023/08/09 01:13:54;;;;;;;1.97;1.73;;;22.30;70.40;;;;;;5054498;28;20196;-70
2023/08/09 01:16:23;;;;;;;1.83;1.70;;;22.30;70.80;;;;;;5062281;28;20213;-71
2023/08/09 01:18:52;;;;;;;2.90;2.00;;;22.30;71.10;;;;;;5072902;28;20233;-70
2023/08/09 01:21:25;;;;;;;2.67;2.00;;;22.20;71.00;;;;;;5073775;28;20217;-70
2023/08/09 01:23:53;;;;;;;2.10;1.90;;;22.20;71.50;;;;;;5074522;28;20547;-70
2023/08/09 01:26:20;;;;;;;2.60;1.80;;;22.10;71.30;;;;;;5067025;28;20217;-70
2023/08/09 01:28:48;;;;;;;2.77;2.07;;;22.00;71.40;;;;;;5054468;28;20236;-71
2023/08/09 01:31:15;;;;;;;5.50;2.10;;;22.00;71.70;;;;;;5054109;28;20209;-70
2023/08/09 01:33:42;;;;;;;2.73;2.10;;;21.80;71.90;;;;;;5054093;28;20213;-71
2023/08/09 01:36:16;;;;;;;3.97;2.10;;;21.80;72.20;;;;;;5059604;28;20208;-70
2023/08/09 01:38:48;;;;;;;5.47;2.23;;;21.80;72.70;;;;;;5074388;28;20296;-70
2023/08/09 01:41:17;;;;;;;2.40;2.13;;;21.80;72.80;;;;;;5073679;28;20229;-70
2023/08/09 01:43:44;;;;;;;2.50;1.87;;;21.80;72.60;;;;;;5058498;28;20297;-70
2023/08/09 01:46:14;;;;;;;2.43;1.80;;;21.80;72.50;;;;;;5059810;28;20231;-70
2023/08/09 01:48:42;;;;;;;1.97;1.77;;;21.90;72.70;;;;;;5074143;28;20349;-71
2023/08/09 01:51:09;;;;;;;2.60;1.93;;;21.90;72.40;;;;;;5073398;28;20605;-71
2023/08/09 01:53:36;;;;;;;2.83;1.90;;;22.00;72.50;;;;;;5074040;28;20571;-70
2023/08/09 01:56:03;;;;;;;2.00;1.80;;;22.00;72.20;;;;;;5068705;28;20202;-71
2023/08/09 01:58:32;;;;;;;2.53;1.90;;;22.00;72.30;;;;;;5054045;28;20213;-70
2023/08/09 02:00:59;;;;;;;1.87;1.60;;;22.00;72.20;;;;;;5053395;28;20221;-70
2023/08/09 02:03:26;;;;;;;2.13;1.90;;;22.00;72.20;;;;;;5053555;28;20225;-70
2023/08/09 02:05:53;;;;;;;2.30;2.10;;;22.00;72.10;;;;;;5056125;28;20221;-70
2023/08/09 02:08:19;;;;;;;2.97;2.00;;;22.10;71.80;;;;;;5073886;28;20237;-70
2023/08/09 02:10:46;;;;;;;2.93;1.80;;;22.10;71.70;;;;;;5073230;28;20716;-70
2023/08/09 02:13:14;;;;;;;2.37;1.90;;;22.10;71.80;;;;;;5073474;28;20340;-70
2023/08/09 02:15:42;;;;;;;2.50;2.00;;;22.20;71.70;;;;;;5072423;28;20633;-70
2023/08/09 02:18:09;;;;;;;2.80;1.70;;;22.10;71.40;;;;;;5053482;28;20206;-72
2023/08/09 02:20:35;;;;;;;3.03;2.00;;;22.10;71.20;;;;;;5053185;28;20209;-70
2023/08/09 02:23:02;;;;;;;2.40;1.80;;;22.10;71.20;;;;;;5053260;28;20216;-71
2023/08/09 02:25:29;;;;;;;3.53;1.70;;;22.10;71.60;;;;;;5053236;28;20319;-70
2023/08/09 02:27:57;;;;;;;2.03;1.73;;;22.20;71.60;;;;;;5072542;28;20205;-72
2023/08/09 02:30:24;;;;;;;3.27;1.97;;;22.10;71.10;;;;;;5073195;28;20232;-70
2023/08/09 02:32:52;;;;;;;2.00;1.80;;;22.10;71.40;;;;;;5072637;28;20201;-71
2023/08/09 02:35:19;;;;;;;2.00;1.80;;;22.20;71.50;;;;;;5072926;28;20220;-70
2023/08/09 02:37:45;;;;;;;2.93;1.93;;;22.20;71.30;;;;;;5055522;28;20196;-70
2023/08/09 02:40:13;;;;;;;3.70;1.90;;;22.10;71.10;;;;;;5052778;28;20305;-71
2023/08/09 02:42:40;;;;;;;3.53;1.83;;;22.10;71.30;;;;;;5058653;28;20213;-71
2023/08/09 02:45:07;;;;;;;2.13;1.50;;;22.10;71.50;;;;;;5072546;28;20255;-71
2023/08/09 02:47:35;;;;;;;3.07;2.20;;;22.10;71.60;;;;;;5055790;28;20747;-71
2023/08/09 02:50:06;;;;;;;4.03;2.10;;;22.10;71.60;;;;;;5035182;28;20206;-70
2023/08/09 02:52:33;;;;;;;2.07;1.80;;;22.00;71.40;;;;;;5052572;28;20256;-71
2023/08/09 02:54:59;;;;;;;3.57;1.97;;;22.10;71.50;;;;;;5052704;28;20207;-71
2023/08/09 02:57:27;;;;;;;2.47;2.07;;;22.10;71.60;;;;;;5067490;28;20197;-72
2023/08/09 02:59:53;;;;;;;2.97;2.10;;;22.10;71.70;;;;;;5072770;28;20209;-70
2023/08/09 03:02:20;;;;;;;2.30;2.00;;;22.10;71.60;;;;;;5071611;28;20205;-71
2023/08/09 03:04:47;;;;;;;3.27;1.67;;;22.10;71.60;;;;;;5072707;28;20205;-70
2023/08/09 03:07:16;;;;;;;1.57;1.47;;;22.10;71.70;;;;;;5058812;28;20225;-71
2023/08/09 03:09:44;;;;;;;2.10;1.90;;;22.10;71.70;;;;;;5052636;28;20598;-71
2023/08/09 03:12:11;;;;;;;2.60;1.83;;;22.10;71.80;;;;;;5052284;28;20207;-70
2023/08/09 03:14:38;;;;;;;1.87;1.77;;;22.20;72.70;;;;;;5052304;28;20241;-70
2023/08/09 03:17:05;;;;;;;2.10;1.90;;;22.10;71.90;;;;;;5063023;28;20220;-70
2023/08/09 03:19:32;;;;;;;2.27;1.90;;;22.10;71.80;;;;;;5072503;28;20208;-70
2023/08/09 03:21:59;;;;;;;2.73;2.00;;;22.10;71.80;;;;;;5071582;28;20205;-70
2023/08/09 03:24:27;;;;;;;3.93;2.10;;;22.00;71.70;;;;;;5072053;28;20571;-71
2023/08/09 03:26:54;;;;;;;3.20;2.20;;;22.00;71.80;;;;;;5062522;28;20252;-70
2023/08/09 03:29:20;;;;;;;2.53;2.10;;;21.90;71.70;;;;;;5051917;28;20237;-70
2023/08/09 03:31:47;;;;;;;2.30;1.60;;;21.90;72.20;;;;;;5051506;28;20233;-70
2023/08/09 03:34:14;;;;;;;2.40;1.90;;;21.80;72.20;;;;;;5052260;28;20685;-70
2023/08/09 03:36:41;;;;;;;3.10;1.90;;;21.80;72.30;;;;;;5059570;28;20225;-70
2023/08/09 03:39:08;;;;;;;3.10;2.10;;;21.80;72.50;;;;;;5072273;28;20185;-71
2023/08/09 03:41:36;;;;;;;2.53;2.00;;;21.70;72.40;;;;;;5071683;28;20301;-70
2023/08/09 03:44:03;;;;;;;2.50;2.10;;;21.70;72.60;;;;;;5054129;28;20210;-71
2023/08/09 03:46:29;;;;;;;3.13;1.90;;;21.70;72.20;;;;;;5057215;28;20217;-70
2023/08/09 03:48:56;;;;;;;2.17;1.97;;;21.70;73.10;;;;;;5072153;28;20232;-70
2023/08/09 03:51:23;;;;;;;4.57;2.10;;;21.70;72.20;;;;;;5071368;28;20711;-71
2023/08/09 03:53:50;;;;;;;2.17;1.97;;;21.70;72.40;;;;;;5071952;28;20231;-72
2023/08/09 03:56:17;;;;;;;4.57;2.10;;;21.60;72.40;;;;;;5067659;28;20204;-70
2023/08/09 03:58:45;;;;;;;2.27;2.07;;;21.60;72.60;;;;;;5051730;28;20618;-69
2023/08/09 04:01:12;;;;;;;3.20;1.90;;;21.60;72.50;;;;;;5051550;28;20217;-70
2023/08/09 04:03:39;;;;;;;2.97;1.73;;;21.70;72.60;;;;;;5051761;28;20576;-71
2023/08/09 04:06:06;;;;;;;2.30;1.83;;;21.60;72.50;;;;;;5053594;28;20222;-71
2023/08/09 04:08:33;;;;;;;2.03;1.80;;;21.50;72.80;;;;;;5072117;28;20262;-70
2023/08/09 04:11:00;;;;;;;2.07;1.70;;;21.50;72.60;;;;;;5071689;28;20236;-70
2023/08/09 04:13:27;;;;;;;3.53;2.03;;;21.60;72.40;;;;;;5070967;28;20208;-71
2023/08/09 04:15:55;;;;;;;2.60;1.90;;;21.60;72.40;;;;;;5070984;28;20623;-70
2023/08/09 04:18:23;;;;;;;2.60;2.00;;;21.50;72.00;;;;;;5052578;28;20588;-70
2023/08/09 04:20:50;;;;;;;4.30;1.90;;;21.60;72.10;;;;;;5055490;28;20267;-71
2023/08/09 04:23:17;;;;;;;2.53;1.87;;;21.60;71.80;;;;;;5055291;28;20236;-71
2023/08/09 04:25:44;;;;;;;2.17;1.97;;;21.60;71.80;;;;;;5055655;28;20229;-71
2023/08/09 04:28:11;;;;;;;2.27;1.90;;;21.70;71.60;;;;;;5073725;28;20225;-71
2023/08/09 04:30:38;;;;;;;3.43;2.03;;;21.60;71.40;;;;;;5057910;28;20193;-71
2023/08/09 04:33:07;;;;;;;2.13;1.80;;;21.60;71.60;;;;;;5074689;28;20709;-70
2023/08/09 04:35:35;;;;;;;2.47;1.70;;;21.60;71.40;;;;;;5075433;28;20213;-71
2023/08/09 04:38:03;;;;;;;2.47;2.00;;;21.70;71.40;;;;;;5058643;28;20712;-71
2023/08/09 04:40:30;;;;;;;2.20;2.00;;;21.70;71.10;;;;;;5055523;28;20458;-70
2023/08/09 04:42:57;;;;;;;2.73;1.80;;;21.80;70.90;;;;;;5063145;28;20215;-71
2023/08/09 04:45:25;;;;;;;2.53;1.83;;;21.80;70.80;;;;;;5075120;28;20232;-70
2023/08/09 04:47:52;;;;;;;3.23;2.20;;;21.80;70.50;;;;;;5074237;28;20278;-71
2023/08/09 04:50:22;;;;;;;3.30;2.07;;;21.80;70.40;;;;;;5075162;28;20232;-71
2023/08/09 04:52:49;;;;;;;4.23;2.10;;;21.80;70.50;;;;;;5074939;28;20205;-71
2023/08/09 04:55:15;;;;;;;5.73;2.97;;;21.80;70.50;;;;;;5074633;28;20225;-70
2023/08/09 04:57:43;;;;;;;2.37;1.93;;;21.80;71.00;;;;;;5060657;28;20284;-71
2023/08/09 05:00:11;;;;;;;1.90;1.70;;;21.80;70.50;;;;;;5054623;28;20226;-71
2023/08/09 05:02:38;;;;;;;2.20;1.83;;;21.80;70.40;;;;;;5054328;28;20335;-72
2023/08/09 05:05:06;;;;;;;3.13;1.87;;;21.70;70.10;;;;;;5055026;28;20216;-70
2023/08/09 05:07:34;;;;;;;3.37;2.20;;;21.70;70.20;;;;;;5067289;28;20746;-71
2023/08/09 05:10:01;;;;;;;5.00;1.77;;;21.70;70.40;;;;;;5074810;28;20211;-70
2023/08/09 05:12:28;;;;;;;3.43;2.07;;;21.70;70.50;;;;;;5074092;28;20205;-71
2023/08/09 05:14:55;;;;;;;1.83;1.57;;;21.70;70.60;;;;;;5074780;28;20573;-71
2023/08/09 05:17:22;;;;;;;3.43;1.80;;;21.70;70.60;;;;;;5063176;28;20225;-70
2023/08/09 05:19:48;;;;;;;2.63;1.80;;;21.70;70.40;;;;;;5054411;28;20212;-71
2023/08/09 05:22:15;;;;;;;3.00;2.13;;;21.70;70.50;;;;;;5054340;28;20256;-71
2023/08/09 05:24:43;;;;;;;2.73;2.00;;;21.70;70.50;;;;;;5054155;28;20367;-71
2023/08/09 05:27:10;;;;;;;2.77;1.70;;;21.70;70.50;;;;;;5063187;28;20213;-71
2023/08/09 05:29:37;;;;;;;2.13;1.93;;;21.70;70.70;;;;;;5073851;28;20247;-71
2023/08/09 05:32:04;;;;;;;2.17;1.97;;;21.70;70.80;;;;;;5073600;28;20217;-71
2023/08/09 05:34:31;;;;;;;2.90;2.00;;;21.80;70.70;;;;;;5074311;28;20311;-70
2023/08/09 05:36:58;;;;;;;2.10;1.90;;;22.00;70.80;;;;;;5074115;28;20212;-71
2023/08/09 05:39:25;;;;;;;2.60;1.73;;;22.00;71.30;;;;;;5074072;28;20228;-70
2023/08/09 05:41:53;;;;;;;2.40;1.83;;;22.00;70.50;;;;;;5073690;28;20225;-70
2023/08/09 05:44:20;;;;;;;2.17;1.97;;;21.90;70.70;;;;;;5053920;28;20228;-72
2023/08/09 05:46:47;;;;;;;3.30;1.73;;;21.80;71.20;;;;;;5059332;28;20220;-71
2023/08/09 05:49:14;;;;;;;2.10;1.90;;;21.70;71.30;;;;;;5074324;28;20221;-70
2023/08/09 05:51:41;;;;;;;3.00;2.00;;;21.70;71.70;;;;;;5073785;28;20715;-70
2023/08/09 05:54:08;;;;;;;2.20;2.00;;;21.80;71.60;;;;;;5074000;28;20208;-70
2023/08/09 05:56:34;;;;;;;2.23;1.70;;;21.80;71.70;;;;;;5069793;28;20224;-70
2023/08/09 05:59:04;;;;;;;2.63;2.13;;;21.80;71.70;;;;;;5054021;28;20205;-71
2023/08/09 06:01:31;;;;;;;2.30;2.00;;;21.80;71.60;;;;;;5053715;28;20237;-71
2023/08/09 06:03:58;;;;;;;2.33;2.00;;;21.90;71.80;;;;;;5053755;28;20243;-72
2023/08/09 06:06:25;;;;;;;2.53;1.87;;;21.90;71.80;;;;;;5055387;28;20296;-70
2023/08/09 06:08:52;;;;;;;3.60;1.97;;;21.90;71.80;;;;;;5073563;28;20747;-70
2023/08/09 06:11:19;;;;;;;3.07;2.23;;;21.90;72.00;;;;;;5073301;28;20220;-70
2023/08/09 06:13:45;;;;;;;3.73;2.03;;;22.00;71.80;;;;;;5073386;28;20321;-71
2023/08/09 06:16:14;;;;;;;2.20;2.00;;;22.00;71.80;;;;;;5073240;28;20213;-70
2023/08/09 06:18:40;;;;;;;3.33;2.07;;;22.00;71.70;;;;;;5053333;28;20731;-70
2023/08/09 06:21:08;;;;;;;2.83;2.10;;;22.00;71.60;;;;;;5053006;28;20251;-71
2023/08/09 06:23:35;;;;;;;4.73;2.40;;;22.00;71.70;;;;;;5053153;28;20252;-70
2023/08/09 06:26:02;;;;;;;2.00;1.77;;;22.10;71.80;;;;;;5053317;28;20194;-70
2023/08/09 06:28:28;;;;;;;2.10;1.90;;;22.10;71.80;;;;;;5071941;28;20228;-71
2023/08/09 06:30:55;;;;;;;2.27;2.00;;;22.10;72.00;;;;;;5073522;28;20414;-71
2023/08/09 06:33:24;;;;;;;3.63;2.37;;;22.10;72.40;;;;;;5073086;28;20215;-71
2023/08/09 06:35:51;;;;;;;2.60;2.10;;;22.10;71.60;;;;;;5073136;28;20266;-70
2023/08/09 06:38:17;;;;;;;4.37;2.00;;;22.10;72.00;;;;;;5055899;28;20229;-71
2023/08/09 06:40:44;;;;;;;2.67;2.20;;;22.10;71.90;;;;;;5052472;28;20233;-70
2023/08/09 06:43:11;;;;;;;2.77;2.00;;;22.00;72.20;;;;;;5062820;28;20205;-71
2023/08/09 06:45:39;;;;;;;3.00;2.00;;;22.00;73.10;;;;;;5072897;28;20324;-71
2023/08/09 06:48:07;;;;;;;4.20;2.20;;;22.10;72.20;;;;;;5072655;28;20229;-71
2023/08/09 06:50:36;;;;;;;3.13;1.97;;;22.10;72.00;;;;;;5072989;28;20201;-70
2023/08/09 06:53:03;;;;;;;3.30;1.90;;;22.10;72.20;;;;;;5072299;28;20204;-70
2023/08/09 06:55:30;;;;;;;2.30;2.10;;;22.20;72.40;;;;;;5072197;28;20699;-70
2023/08/09 06:57:56;;;;;;;4.33;2.13;;;22.20;72.20;;;;;;5059002;28;20213;-70
2023/08/09 07:00:23;;;;;;;2.10;1.90;;;22.10;72.20;;;;;;5052551;28;20220;-70
2023/08/09 07:02:50;;;;;;;3.13;1.80;;;22.10;72.60;;;;;;5052083;28;20320;-71
2023/08/09 07:05:20;;;;;;;3.63;1.80;;;22.10;72.40;;;;;;5052261;28;20316;-71
2023/08/09 07:07:52;;;;;;;3.33;2.00;;;22.10;72.40;;;;;;5063776;28;20286;-71
2023/08/09 07:10:19;;;;;;;3.60;2.00;;;22.10;72.70;;;;;;5071929;28;20200;-69
2023/08/09 07:12:46;;;;;;;2.73;2.00;;;22.10;72.80;;;;;;5071867;28;20211;-70
2023/08/09 07:15:13;;;;;;;2.67;2.07;;;22.20;72.70;;;;;;5072030;28;20223;-70
2023/08/09 07:17:40;;;;;;;2.47;1.97;;;22.20;72.50;;;;;;5061322;28;20197;-71
2023/08/09 07:20:11;;;;;;;2.53;1.87;;;22.30;72.50;;;;;;5064101;28;20225;-70
2023/08/09 07:22:38;;;;;;;2.27;1.70;;;22.30;72.50;;;;;;5072167;28;20638;-70
2023/08/09 07:25:07;;;;;;;2.43;2.17;;;22.30;73.40;;;;;;5071846;28;20323;-71
2023/08/09 07:27:34;;;;;;;3.20;2.30;;;22.20;72.50;;;;;;5062312;28;20226;-70
2023/08/09 07:30:01;;;;;;;3.33;1.90;;;22.10;72.50;;;;;;5051950;28;20325;-71
2023/08/09 07:32:30;;;;;;;2.47;2.00;;;22.10;72.90;;;;;;5052294;28;20220;-72
2023/08/09 07:34:57;;;;;;;2.20;2.00;;;22.10;73.30;;;;;;5051732;28;20202;-70
2023/08/09 07:37:24;;;;;;;2.47;1.90;;;22.10;73.10;;;;;;5059672;28;20252;-71
2023/08/09 07:39:51;;;;;;;3.30;2.00;;;22.20;73.10;;;;;;5072283;28;20200;-71
2023/08/09 07:42:19;;;;;;;2.27;1.97;;;22.10;73.00;;;;;;5068501;28;20325;-70
2023/08/09 07:44:46;;;;;;;1.70;1.60;;;22.20;73.20;;;;;;5051472;28;20704;-70
2023/08/09 07:47:13;;;;;;;3.00;2.00;;;22.30;73.10;;;;;;5058282;28;20229;-71
2023/08/09 07:49:39;;;;;;;2.83;1.87;;;22.30;72.60;;;;;;5071945;28;20209;-70
2023/08/09 07:52:06;;;;;;;2.30;2.00;;;22.30;72.70;;;;;;5071415;28;20231;-71
2023/08/09 07:54:33;;;;;;;3.47;2.17;;;22.30;72.90;;;;;;5071612;28;20225;-70
2023/08/09 07:57:00;;;;;;;2.73;1.70;;;22.30;72.70;;;;;;5067155;28;20274;-71
2023/08/09 07:59:28;;;;;;;4.10;2.23;;;22.30;72.70;;;;;;5051798;28;20236;-71
2023/08/09 08:01:55;;;;;;;3.07;2.00;;;22.40;72.80;;;;;;5051868;28;20221;-70
2023/08/09 08:04:22;;;;;;;2.33;1.73;;;22.40;72.70;;;;;;5051560;28;20326;-70
2023/08/09 08:06:49;;;;;;;4.23;2.20;;;22.40;73.10;;;;;;5053541;28;20552;-72
2023/08/09 08:09:16;;;;;;;3.03;2.00;;;22.40;73.30;;;;;;5071870;28;20233;-70
2023/08/09 08:11:44;;;;;;;2.50;1.93;;;22.60;73.00;;;;;;5071365;28;20216;-71
2023/08/09 08:14:11;;;;;;;2.63;1.97;;;22.70;72.90;;;;;;5071729;28;20205;-70
2023/08/09 08:16:39;;;;;;;2.13;1.93;;;22.80;72.60;;;;;;5070909;28;20756;-70
2023/08/09 08:19:06;;;;;;;2.93;1.57;;;22.70;72.30;;;;;;5051726;28;20252;-70
2023/08/09 08:21:33;;;;;;;2.43;2.00;;;22.80;72.60;;;;;;5051131;28;20312;-71
2023/08/09 08:24:00;;;;;;;4.63;2.27;;;22.80;72.30;;;;;;5051584;28;20222;-70
2023/08/09 08:26:26;;;;;;;3.20;1.80;;;22.90;72.30;;;;;;5051330;28;20721;-70
2023/08/09 08:28:53;;;;;;;5.30;2.50;;;23.00;72.10;;;;;;5070204;28;20334;-69
2023/08/09 08:31:22;;;;;;;1.93;1.73;;;23.00;72.10;;;;;;5071458;28;20252;-70
2023/08/09 08:33:51;;;;;;;2.90;1.90;;;23.00;72.20;;;;;;5071345;28;20255;-70
2023/08/09 08:36:18;;;;;;;2.90;1.90;;;23.00;71.90;;;;;;5071254;28;20209;-70
2023/08/09 08:38:44;;;;;;;2.77;1.97;;;23.00;72.40;;;;;;5053597;28;20202;-70
2023/08/09 08:41:11;;;;;;;2.00;1.80;;;23.10;72.30;;;;;;5051401;28;20209;-71
2023/08/09 08:43:38;;;;;;;2.17;1.77;;;23.00;72.00;;;;;;5065290;28;20327;-71
2023/08/09 08:46:06;;;;;;;3.13;1.60;;;22.90;71.90;;;;;;5071369;28;20205;-71
2023/08/09 08:48:33;;;;;;;3.13;2.03;;;22.90;72.20;;;;;;5070305;28;20239;-70
2023/08/09 08:51:03;;;;;;;3.27;2.20;;;22.90;72.30;;;;;;5071400;28;20608;-71
2023/08/09 08:53:30;;;;;;;3.20;2.00;;;22.90;72.40;;;;;;5070719;28;20320;-70
2023/08/09 08:55:57;;;;;;;2.83;1.60;;;22.90;72.60;;;;;;5071314;28;20285;-70
2023/08/09 08:58:24;;;;;;;4.97;1.70;;;22.90;73.00;;;;;;5056509;28;20209;-70
2023/08/09 09:00:51;;;;;;;1.70;1.60;;;22.90;72.90;;;;;;5051484;28;20218;-71
2023/08/09 09:03:18;;;;;;;3.10;2.00;;;22.80;73.10;;;;;;5050780;28;20275;-70
2023/08/09 09:05:45;;;;;;;2.67;1.63;;;22.80;73.30;;;;;;5052120;28;20241;-70
2023/08/09 09:08:14;;;;;;;2.10;1.90;;;22.70;73.30;;;;;;5067388;28;20579;-71
2023/08/09 09:10:45;;;;;;;2.63;1.87;;;22.80;73.60;;;;;;5056779;28;20233;-71
2023/08/09 09:13:25;;;;;;;2.47;2.07;;;22.90;73.50;;;;;;5074629;28;20215;-70
2023/08/09 09:15:53;;;;;;;4.67;2.23;;;22.90;73.40;;;;;;5074273;28;20220;-71
2023/08/09 09:18:21;;;;;;;4.03;1.93;;;23.00;73.30;;;;;;5061106;28;20281;-71
2023/08/09 09:20:49;;;;;;;3.10;2.20;;;22.90;73.30;;;;;;5054390;28;20216;-71
2023/08/09 09:23:28;;;;;;;1.73;1.63;;;22.90;73.70;;;;;;5054477;28;20202;-71
2023/08/09 09:26:05;;;;;;;2.10;1.90;;;23.00;73.20;;;;;;5054637;28;20217;-70
2023/08/09 09:28:39;;;;;;;2.90;1.90;;;23.20;73.30;;;;;;5068599;28;20311;-70
2023/08/09 09:31:06;;;;;;;2.43;1.90;;;23.20;73.10;;;;;;5074468;28;20201;-70
2023/08/09 09:33:34;;;;;;;2.47;1.80;;;23.20;73.20;;;;;;5073509;28;20734;-70
2023/08/09 09:36:01;;;;;;;3.17;2.00;;;23.10;73.40;;;;;;5074257;28;20683;-71
2023/08/09 09:38:30;;;;;;;2.37;1.70;;;23.20;73.50;;;;;;5060039;28;20230;-70
2023/08/09 09:40:57;;;;;;;2.43;1.97;;;23.20;73.80;;;;;;5054212;28;20709;-70
2023/08/09 09:43:24;;;;;;;2.83;2.00;;;23.20;73.40;;;;;;5065833;28;20696;-70
2023/08/09 09:45:54;;;;;;;3.73;1.80;;;23.30;73.20;;;;;;5073670;28;20665;-71
2023/08/09 09:48:21;;;;;;;3.10;1.70;;;23.30;73.10;;;;;;5073036;28;20221;-71
2023/08/09 09:50:49;;;;;;;1.63;1.47;;;23.20;73.50;;;;;;5073830;28;20612;-70
2023/08/09 09:53:16;;;;;;;1.63;1.53;;;23.10;74.60;;;;;;5073839;28;20205;-71
2023/08/09 09:55:45;;;;;;;1.77;1.30;;;23.00;75.10;;;;;;5073882;28;20236;-71
2023/08/09 09:58:13;;;;;;;2.17;1.80;;;22.80;75.70;;;;;;5062352;28;20204;-70
2023/08/09 10:00:46;;;;;;;2.27;1.37;;;22.80;75.80;;;;;;5053917;28;20299;-71
2023/08/09 10:03:15;;;;;;;1.50;1.30;;;22.90;76.70;;;;;;5053301;28;20206;-69
2023/08/09 10:05:46;;;;;;;1.90;1.50;;;22.90;76.00;;;;;;5053765;28;20545;-71
2023/08/09 10:08:14;;;;;;;2.33;1.33;;;22.90;75.80;;;;;;5064635;28;20299;-70
2023/08/09 10:10:44;;;;;;;3.30;1.50;;;23.10;75.80;;;;;;5073754;28;20334;-70
2023/08/09 10:13:21;;;;;;;2.17;1.60;;;23.30;75.60;;;;;;5073279;28;20712;-71
2023/08/09 10:15:53;;;;;;;1.60;1.50;;;23.50;75.20;;;;;;5073288;28;20203;-70
2023/08/09 10:18:39;;;;;;;2.20;1.27;;;23.60;74.70;;;;;;5061483;28;20247;-70
2023/08/09 10:21:07;;;;;;;4.27;1.80;;;23.80;74.30;;;;;;5057093;28;20247;-71
2023/08/09 10:23:34;;;;;;;2.50;1.77;;;23.90;73.70;;;;;;5056690;28;20316;-71
2023/08/09 10:26:02;;;;;;;3.30;2.00;;;24.00;73.60;;;;;;5053667;28;20317;-71
2023/08/09 10:28:47;;;;;;;2.87;1.87;;;24.10;72.50;;;;;;5065722;28;20323;-71
2023/08/09 10:31:14;;;;;;;4.57;2.20;;;24.20;71.80;;;;;;5073114;28;20641;-71
2023/08/09 10:33:43;;;;;;;2.13;1.70;;;24.20;72.80;;;;;;5072637;28;20204;-71
2023/08/09 10:36:13;;;;;;;3.17;1.93;;;24.30;72.40;;;;;;5073247;28;20205;-70
2023/08/09 10:38:41;;;;;;;2.50;1.90;;;24.40;71.50;;;;;;5059160;28;20263;-70
2023/08/09 10:41:11;;;;;;;2.30;1.80;;;24.40;71.50;;;;;;5053290;28;20669;-70
2023/08/09 10:43:39;;;;;;;4.37;1.90;;;24.40;71.70;;;;;;5066584;28;20251;-70
2023/08/09 10:46:20;;;;;;;2.20;1.90;;;24.50;71.20;;;;;;5072428;28;20320;-71
2023/08/09 10:48:49;;;;;;;2.70;1.83;;;24.50;71.30;;;;;;5071958;28;20219;-70
2023/08/09 10:51:21;;;;;;;3.20;2.03;;;24.50;70.70;;;;;;5072768;28;20322;-70
2023/08/09 10:54:08;;;;;;;5.03;2.30;;;24.60;71.20;;;;;;5072950;28;20240;-70
2023/08/09 10:56:44;;;;;;;3.90;1.80;;;24.60;70.70;;;;;;5073014;28;20232;-71
2023/08/09 10:59:13;;;;;;;1.87;1.73;;;24.60;70.70;;;;;;5054200;28;20205;-70
2023/08/09 11:01:41;;;;;;;3.63;2.20;;;24.60;70.70;;;;;;5052107;28;20717;-72
2023/08/09 11:04:09;;;;;;;2.70;2.23;;;24.60;70.60;;;;;;5052337;28;20197;-70
2023/08/09 11:06:38;;;;;;;4.73;2.30;;;24.60;70.80;;;;;;5052860;28;20222;-70
2023/08/09 11:09:09;;;;;;;2.77;2.10;;;24.50;70.70;;;;;;5068952;28;20610;-71
2023/08/09 11:11:39;;;;;;;2.43;1.87;;;24.40;70.50;;;;;;5072188;28;20299;-71
2023/08/09 11:14:06;;;;;;;4.53;2.00;;;24.30;71.20;;;;;;5071774;28;20235;-70
2023/08/09 11:16:33;;;;;;;3.63;2.03;;;24.30;71.50;;;;;;5054286;28;20215;-70
2023/08/09 11:19:03;;;;;;;3.53;1.80;;;24.20;70.80;;;;;;5056305;28;20236;-70
2023/08/09 11:21:38;;;;;;;2.93;1.97;;;24.20;71.50;;;;;;5052399;28;20623;-70
2023/08/09 11:24:07;;;;;;;3.10;1.90;;;24.20;71.30;;;;;;5051870;28;20239;-70
2023/08/09 11:26:35;;;;;;;5.37;2.13;;;24.20;71.70;;;;;;5052433;28;20271;-70
2023/08/09 11:29:04;;;;;;;2.27;2.03;;;24.20;71.60;;;;;;5066962;28;20231;-71
2023/08/09 11:31:33;;;;;;;2.40;1.93;;;24.20;71.30;;;;;;5071891;28;20215;-71
2023/08/09 11:34:00;;;;;;;2.37;1.83;;;24.10;71.60;;;;;;5072052;28;20240;-71
2023/08/09 11:36:29;;;;;;;2.07;1.80;;;24.10;71.30;;;;;;5066725;28;20426;-70
2023/08/09 11:38:57;;;;;;;3.10;1.97;;;24.10;71.60;;;;;;5052019;28;20703;-71
2023/08/09 11:41:25;;;;;;;2.10;1.93;;;24.00;71.80;;;;;;5051720;28;20233;-71
2023/08/09 11:43:52;;;;;;;5.23;2.10;;;24.10;72.70;;;;;;5067325;28;20201;-70
2023/08/09 11:46:22;;;;;;;5.57;2.20;;;24.20;71.80;;;;;;5069397;28;20239;-70
2023/08/09 11:48:51;;;;;;;3.07;2.07;;;24.40;71.70;;;;;;5052181;28;20210;-70
2023/08/09 11:51:19;;;;;;;1.70;1.60;;;24.70;71.80;;;;;;5051951;28;20206;-69
2023/08/09 11:53:48;;;;;;;2.50;2.10;;;25.00;70.50;;;;;;5051882;28;20297;-71
2023/08/09 11:56:18;;;;;;;2.07;1.87;;;25.10;69.60;;;;;;5051713;28;20208;-70
2023/08/09 11:58:47;;;;;;;2.10;1.90;;;25.40;70.00;;;;;;5051187;28;20708;-70
2023/08/09 12:01:19;;;;;;;2.80;1.87;;;25.60;69.40;;;;;;5052080;28;20237;-70
2023/08/09 12:03:49;;;;;;;2.13;1.60;;;25.80;68.20;;;;;;5051685;28;20235;-71
2023/08/09 12:06:18;;;;;;;1.80;1.60;;;25.80;66.10;;;;;;5051731;28;20190;-70
2023/08/09 12:08:44;;;;;;;3.17;1.93;;;25.70;67.00;;;;;;5051350;28;20261;-71
2023/08/09 12:11:16;;;;;;;2.97;2.03;;;25.90;67.50;;;;;;5051760;28;20194;-70
2023/08/09 12:13:43;;;;;;;3.67;2.10;;;26.00;66.30;;;;;;5050947;28;20190;-70
2023/08/09 12:16:09;;;;;;;3.60;1.80;;;26.00;66.20;;;;;;5051643;28;20223;-70
2023/08/09 12:18:37;;;;;;;2.23;2.03;;;26.00;66.40;;;;;;5051612;28;20225;-70
2023/08/09 12:21:07;;;;;;;2.27;1.80;;;26.10;66.00;;;;;;5051794;28;20230;-70
2023/08/09 12:23:36;;;;;;;2.40;2.20;;;26.00;64.80;;;;;;5051519;28;20231;-71
2023/08/09 12:26:07;;;;;;;2.60;2.07;;;26.00;66.30;;;;;;5051349;28;20231;-70
2023/08/09 12:28:34;;;;;;;6.13;2.63;;;26.10;66.20;;;;;;5050889;28;20233;-71
2023/08/09 12:31:01;;;;;;;3.67;1.90;;;26.10;65.90;;;;;;5050658;28;20325;-72
2023/08/09 12:33:28;;;;;;;3.43;1.70;;;26.00;65.70;;;;;;5050543;28;20196;-71
2023/08/09 12:35:54;;;;;;;2.87;2.13;;;26.00;65.40;;;;;;5050391;28;20720;-71
2023/08/09 12:38:24;;;;;;;4.07;2.77;;;25.80;65.40;;;;;;5050560;28;20203;-70
2023/08/09 12:40:50;;;;;;;3.10;2.17;;;25.80;66.40;;;;;;5053030;28;20222;-70
2023/08/09 12:43:17;;;;;;;2.53;1.80;;;25.70;66.50;;;;;;5053254;28;20197;-70
2023/08/09 12:45:44;;;;;;;2.67;2.03;;;25.60;65.50;;;;;;5053787;28;20212;-70
2023/08/09 12:48:11;;;;;;;1.87;1.70;;;25.50;65.70;;;;;;5053850;28;20233;-71
2023/08/09 12:50:40;;;;;;;1.70;1.60;;;25.50;65.70;;;;;;5053836;28;20555;-70
2023/08/09 12:53:07;;;;;;;1.77;1.67;;;25.60;66.10;;;;;;5053663;28;20625;-71